createdAt,value
2022-11-16T00:01:26.217Z,7.69
2022-11-16T00:03:58.569Z,7.60
2022-11-16T00:06:29.148Z,7.50
2022-11-16T00:09:18.079Z,7.54
2022-11-16T00:11:49.912Z,7.48
2022-11-16T00:14:18.674Z,7.43
2022-11-16T00:16:49.775Z,7.43
2022-11-16T00:19:18.880Z,7.39
2022-11-16T00:21:47.784Z,7.37
2022-11-16T00:24:19.109Z,7.42
2022-11-16T00:26:50.220Z,7.36
2022-11-16T00:29:20.893Z,7.31
2022-11-16T00:31:51.090Z,7.32
2022-11-16T00:34:20.562Z,7.38
2022-11-16T00:36:49.686Z,7.36
2022-11-16T00:39:21.056Z,7.39
2022-11-16T00:41:51.917Z,7.42
2022-11-16T00:44:20.704Z,7.44
2022-11-16T00:46:49.651Z,7.43
2022-11-16T00:49:18.588Z,7.43
2022-11-16T00:51:47.203Z,7.44
2022-11-16T00:54:17.001Z,7.41
2022-11-16T00:56:45.652Z,7.39
2022-11-16T00:59:22.288Z,7.41
2022-11-16T01:01:50.801Z,7.36
2022-11-16T01:04:20.731Z,7.32
2022-11-16T01:06:49.595Z,7.30
2022-11-16T01:09:19.265Z,7.32
2022-11-16T01:12:05.458Z,7.34
2022-11-16T01:14:35.798Z,7.30
2022-11-16T01:17:05.897Z,7.21
2022-11-16T01:19:34.554Z,7.22
2022-11-16T01:22:03.444Z,7.27
2022-11-16T01:24:32.289Z,7.22
2022-11-16T01:27:01.034Z,7.18
2022-11-16T01:29:31.730Z,7.18
2022-11-16T01:32:02.702Z,7.14
2022-11-16T01:34:32.538Z,7.14
2022-11-16T01:37:01.499Z,7.06
2022-11-16T01:39:29.971Z,7.06
2022-11-16T01:41:58.458Z,7.03
2022-11-16T01:45:04.174Z,7.00
2022-11-16T01:47:34.727Z,7.01
2022-11-16T01:50:11.871Z,7.01
2022-11-16T01:52:47.120Z,7.04
2022-11-16T01:55:16.642Z,7.02
2022-11-16T01:57:47.678Z,7.02
2022-11-16T02:00:20.219Z,7.02
2022-11-16T02:02:50.640Z,7.01
2022-11-16T02:05:23.156Z,7.00
2022-11-16T02:08:23.815Z,6.99
2022-11-16T02:11:05.313Z,6.98
2022-11-16T02:13:47.008Z,6.97
2022-11-16T02:16:29.053Z,6.94
2022-11-16T02:19:10.233Z,6.91
2022-11-16T02:21:46.356Z,6.82
2022-11-16T02:24:45.057Z,6.78
2022-11-16T02:27:34.155Z,6.74
2022-11-16T02:30:06.506Z,6.74
2022-11-16T02:32:38.486Z,6.71
2022-11-16T02:35:15.298Z,6.68
2022-11-16T02:37:49.501Z,6.68
2022-11-16T02:40:22.257Z,6.64
2022-11-16T02:42:56.259Z,6.66
2022-11-16T02:45:30.856Z,6.68
2022-11-16T02:48:05.445Z,6.70
2022-11-16T02:50:35.494Z,6.71
2022-11-16T02:53:04.926Z,6.68
2022-11-16T02:55:36.231Z,6.67
2022-11-16T02:58:07.519Z,6.61
2022-11-16T03:00:46.284Z,6.60
2022-11-16T03:03:26.013Z,6.56
2022-11-16T03:05:57.816Z,6.50
2022-11-16T03:08:32.180Z,6.49
2022-11-16T03:11:23.256Z,6.48
2022-11-16T03:13:52.963Z,6.46
2022-11-16T03:16:29.212Z,6.45
2022-11-16T03:19:00.252Z,6.42
2022-11-16T03:21:36.061Z,6.40
2022-11-16T03:24:05.455Z,6.40
2022-11-16T03:26:44.658Z,6.38
2022-11-16T03:29:22.599Z,6.30
2022-11-16T03:31:58.255Z,6.29
2022-11-16T03:34:31.615Z,6.29
2022-11-16T03:37:04.452Z,6.32
2022-11-16T03:39:38.034Z,6.36
2022-11-16T03:42:13.917Z,6.31
2022-11-16T03:44:46.893Z,6.31
2022-11-16T03:47:19.696Z,6.28
2022-11-16T03:49:50.487Z,6.24
2022-11-16T03:52:19.734Z,6.19
2022-11-16T03:54:48.830Z,6.09
2022-11-16T03:57:18.775Z,6.01
2022-11-16T03:59:47.647Z,5.94
2022-11-16T04:02:16.281Z,5.96
2022-11-16T04:05:04.332Z,5.95
2022-11-16T04:07:49.754Z,5.94
2022-11-16T04:10:35.857Z,5.95
2022-11-16T04:13:22.966Z,5.92
2022-11-16T04:16:08.854Z,5.90
2022-11-16T04:19:02.879Z,5.85
2022-11-16T04:21:53.155Z,5.81
2022-11-16T04:24:33.215Z,5.76
2022-11-16T04:27:24.793Z,5.71
2022-11-16T04:30:00.980Z,5.73
2022-11-16T04:32:47.628Z,5.72
2022-11-16T04:35:41.890Z,5.72
2022-11-16T04:38:13.530Z,5.71
2022-11-16T04:40:43.800Z,5.68
2022-11-16T04:43:11.051Z,5.61
2022-11-16T04:45:56.926Z,5.55
2022-11-16T04:48:25.763Z,5.51
2022-11-16T04:50:54.407Z,5.45
2022-11-16T04:53:30.094Z,5.38
2022-11-16T04:56:01.177Z,5.37
2022-11-16T04:58:31.695Z,5.39
2022-11-16T05:01:02.005Z,5.35
2022-11-16T05:03:33.080Z,5.29
2022-11-16T05:06:03.745Z,5.25
2022-11-16T05:08:38.144Z,5.23
2022-11-16T05:11:08.348Z,5.22
2022-11-16T05:13:37.285Z,5.19
2022-11-16T05:16:07.181Z,5.15
2022-11-16T05:18:44.677Z,5.12
2022-11-16T05:21:17.079Z,5.07
2022-11-16T05:24:07.180Z,5.05
2022-11-16T05:26:38.913Z,5.06
2022-11-16T05:29:10.821Z,5.06
2022-11-16T05:31:40.782Z,5.00
2022-11-16T05:34:12.944Z,5.05
2022-11-16T05:36:44.445Z,5.06
2022-11-16T05:39:29.236Z,5.04
2022-11-16T05:42:00.531Z,5.06
2022-11-16T05:44:30.233Z,4.97
2022-11-16T05:46:59.954Z,4.88
2022-11-16T05:49:30.480Z,4.87
2022-11-16T05:52:00.230Z,4.88
2022-11-16T05:54:33.926Z,4.77
2022-11-16T05:57:02.686Z,4.74
2022-11-16T05:59:31.719Z,4.74
2022-11-16T06:02:04.151Z,4.65
2022-11-16T06:04:35.101Z,4.68
2022-11-16T06:07:05.142Z,4.72
2022-11-16T06:09:35.512Z,4.75
2022-11-16T06:12:04.585Z,4.70
2022-11-16T06:14:35.546Z,4.64
2022-11-16T06:45:03.105Z,4.39
2022-11-16T06:47:32.094Z,4.32
2022-11-16T06:50:01.090Z,4.31
2022-11-16T06:52:30.939Z,4.31
2022-11-16T06:54:59.481Z,4.36
2022-11-16T06:57:36.470Z,4.37
2022-11-16T07:00:12.258Z,4.39
2022-11-16T07:02:42.750Z,4.33
2022-11-16T07:05:15.400Z,4.24
2022-11-16T07:07:44.904Z,4.27
2022-11-16T07:10:18.680Z,4.33
2022-11-16T07:12:49.788Z,4.34
2022-11-16T07:15:20.287Z,4.30
2022-11-16T07:17:51.636Z,4.25
2022-11-16T07:20:22.592Z,4.20
2022-11-16T07:22:53.303Z,4.18
2022-11-16T07:25:23.327Z,4.20
2022-11-16T07:27:51.706Z,4.18
2022-11-16T07:30:21.906Z,3.98
2022-11-16T07:32:50.741Z,3.98
2022-11-16T07:35:20.634Z,4.01
2022-11-16T07:37:58.816Z,4.06
2022-11-16T07:40:27.396Z,4.05
2022-11-16T07:42:59.284Z,3.94
2022-11-16T07:45:29.059Z,3.96
2022-11-16T07:47:58.563Z,3.97
2022-11-16T07:50:26.923Z,3.99
2022-11-16T07:52:56.846Z,3.99
2022-11-16T07:55:34.309Z,3.95
2022-11-16T07:58:10.939Z,3.94
2022-11-16T08:00:47.288Z,3.97
2022-11-16T08:03:19.295Z,4.01
2022-11-16T08:06:00.771Z,4.01
2022-11-16T08:08:33.469Z,4.05
2022-11-16T08:11:10.624Z,4.03
2022-11-16T08:13:45.905Z,4.05
2022-11-16T08:16:19.760Z,4.03
2022-11-16T08:18:51.831Z,3.99
2022-11-16T08:21:24.514Z,4.03
2022-11-16T08:23:58.073Z,4.10
2022-11-16T08:26:31.838Z,4.13
2022-11-16T08:29:09.506Z,4.32
2022-11-16T08:31:40.097Z,4.50
2022-11-16T08:34:10.875Z,4.70
2022-11-16T08:36:40.628Z,4.87
2022-11-16T08:39:09.035Z,5.08
2022-11-16T08:41:45.133Z,5.20
2022-11-16T08:44:15.835Z,5.35
2022-11-16T08:46:45.921Z,5.46
2022-11-16T08:49:15.213Z,5.39
2022-11-16T08:51:43.759Z,5.40
2022-11-16T08:54:13.486Z,5.37
2022-11-16T08:56:42.160Z,5.52
2022-11-16T08:59:10.823Z,5.62
2022-11-16T09:01:42.277Z,5.64
2022-11-16T09:04:13.841Z,5.62
2022-11-16T09:06:42.617Z,5.64
2022-11-16T09:09:14.867Z,5.67
2022-11-16T09:11:43.997Z,5.75
2022-11-16T09:14:14.216Z,5.81
2022-11-16T09:16:42.745Z,6.00
2022-11-16T09:19:20.965Z,6.22
2022-11-16T09:21:50.888Z,6.52
2022-11-16T09:24:19.917Z,6.85
2022-11-16T09:26:48.378Z,7.19
2022-11-16T09:29:16.994Z,7.58
2022-11-16T09:31:46.334Z,7.81
2022-11-16T09:34:15.694Z,7.94
2022-11-16T09:36:45.789Z,8.16
2022-11-16T09:39:30.039Z,8.34
2022-11-16T09:42:08.654Z,8.52
2022-11-16T09:45:08.772Z,8.69
2022-11-16T09:47:46.553Z,8.85
2022-11-16T09:50:33.590Z,8.98
2022-11-16T09:53:15.486Z,8.75
2022-11-16T09:55:49.221Z,8.24
2022-11-16T09:58:23.982Z,8.08
2022-11-16T10:00:59.122Z,7.93
2022-11-16T10:03:29.900Z,7.87
2022-11-16T10:06:04.629Z,7.88
2022-11-16T10:08:44.878Z,7.89
2022-11-16T10:11:33.655Z,7.93
2022-11-16T10:14:21.016Z,7.95
2022-11-16T10:16:58.096Z,8.03
2022-11-16T10:19:39.853Z,8.13
2022-11-16T10:22:23.585Z,8.28
2022-11-16T10:24:59.119Z,8.42
2022-11-16T10:27:39.912Z,8.52
2022-11-16T10:30:12.507Z,8.61
2022-11-16T10:32:48.911Z,8.76
2022-11-16T10:35:21.434Z,8.90
2022-11-16T10:37:53.268Z,9.00
2022-11-16T10:40:27.584Z,9.15
2022-11-16T10:43:07.414Z,9.29
2022-11-16T10:45:41.464Z,9.48
2022-11-16T10:48:32.513Z,9.49
2022-11-16T10:51:01.594Z,9.60
2022-11-16T10:53:34.092Z,9.68
2022-11-16T10:56:16.240Z,9.83
2022-11-16T10:58:58.386Z,9.97
2022-11-16T11:01:33.946Z,10.15
2022-11-16T11:04:20.727Z,10.29
2022-11-16T11:06:52.916Z,10.42
2022-11-16T11:09:31.318Z,10.56
2022-11-16T11:12:41.504Z,10.62
2022-11-16T11:15:26.526Z,10.69
2022-11-16T11:18:15.024Z,10.73
2022-11-16T11:20:46.226Z,10.71
2022-11-16T11:23:19.302Z,10.85
2022-11-16T11:25:56.699Z,10.69
2022-11-16T11:28:30.398Z,10.59
2022-11-16T11:31:04.048Z,10.81
2022-11-16T11:33:36.979Z,10.76
2022-11-16T11:36:13.289Z,10.76
2022-11-16T11:38:58.576Z,11.06
2022-11-16T11:41:30.069Z,11.28
2022-11-16T11:44:17.364Z,11.35
2022-11-16T11:49:52.474Z,11.25
2022-11-16T11:52:26.753Z,11.38
2022-11-16T11:54:57.903Z,11.51
2022-11-16T11:57:28.022Z,11.66
2022-11-16T11:59:58.169Z,11.55
2022-11-16T12:02:42.249Z,11.54
2022-11-16T12:05:45.830Z,11.61
2022-11-16T12:08:36.208Z,11.47
2022-11-16T12:11:15.420Z,11.70
2022-11-16T13:20:03.002Z,12.03
2022-11-16T13:22:35.565Z,12.06
2022-11-16T13:25:15.760Z,12.32
2022-11-16T13:27:51.297Z,11.76
2022-11-16T13:30:23.698Z,11.90
2022-11-16T13:33:13.349Z,11.83
2022-11-16T13:35:43.922Z,11.84
2022-11-16T13:38:52.646Z,12.06
2022-11-16T13:41:35.495Z,12.03
2022-11-16T13:44:06.490Z,11.95
2022-11-16T13:46:55.945Z,11.92
2022-11-16T13:56:44.805Z,12.27
2022-11-16T15:07:17.301Z,14.14
2022-11-16T15:17:33.198Z,11.47
2022-11-16T15:20:41.922Z,11.06
2022-11-16T15:23:40.850Z,10.77
2022-11-16T15:26:13.274Z,10.63
2022-11-16T15:28:48.740Z,10.53
2022-11-16T15:31:22.412Z,10.43
2022-11-16T15:33:51.352Z,10.29
2022-11-16T15:36:25.625Z,10.17
2022-11-16T15:38:59.124Z,10.11
2022-11-16T15:41:29.704Z,10.05
2022-11-16T15:44:16.597Z,9.98
2022-11-16T15:46:48.778Z,9.92
2022-11-16T15:49:29.886Z,9.90
2022-11-16T15:52:00.154Z,9.87
2022-11-16T15:54:51.763Z,9.76
2022-11-16T15:57:21.621Z,9.67
2022-11-16T16:10:33.241Z,9.34
2022-11-16T16:13:04.358Z,9.29
2022-11-16T16:15:36.910Z,9.21
2022-11-16T16:18:14.604Z,9.17
2022-11-16T16:20:50.119Z,9.14
2022-11-16T16:23:27.049Z,9.09
2022-11-16T16:25:57.033Z,9.03
2022-11-16T16:28:25.522Z,8.97
2022-11-16T16:30:56.971Z,8.86
2022-11-16T16:33:29.326Z,8.80
2022-11-16T16:35:58.137Z,8.73
2022-11-16T16:38:27.101Z,8.67
2022-11-16T16:41:03.111Z,8.65
2022-11-16T16:43:33.464Z,8.62
2022-11-16T16:46:03.752Z,8.54
2022-11-16T16:48:32.763Z,8.52
2022-11-16T16:51:01.512Z,8.55
2022-11-16T16:53:29.887Z,8.63
2022-11-16T16:56:00.206Z,8.68
2022-11-16T16:58:28.778Z,8.68
2022-11-16T17:48:22.945Z,9.01
2022-11-16T17:50:52.036Z,8.94
2022-11-16T17:53:20.572Z,8.99
2022-11-16T17:55:49.480Z,9.05
2022-11-16T17:58:18.101Z,9.00
2022-11-16T18:00:50.729Z,9.02
2022-11-16T18:03:20.666Z,8.96
2022-11-16T18:05:50.752Z,8.96
2022-11-16T18:08:20.052Z,9.00
2022-11-16T18:10:51.874Z,8.94
2022-11-16T18:13:23.252Z,8.90
2022-11-16T18:15:53.111Z,8.85
2022-11-16T18:18:24.419Z,8.85
2022-11-16T18:20:56.498Z,8.89
2022-11-16T18:23:26.159Z,8.84
2022-11-16T18:25:54.995Z,8.86
2022-11-16T18:28:23.626Z,8.80
2022-11-16T18:30:53.454Z,8.82
2022-11-16T18:33:24.317Z,8.85
2022-11-16T18:35:57.751Z,8.83
2022-11-16T18:38:26.341Z,8.87
2022-11-16T18:41:08.662Z,8.93
2022-11-16T18:43:37.957Z,9.01
2022-11-16T18:46:14.657Z,9.08
2022-11-16T18:48:46.916Z,9.14
2022-11-16T18:51:19.207Z,9.12
2022-11-16T18:53:49.244Z,9.13
2022-11-16T18:56:20.604Z,9.08
2022-11-16T18:58:50.778Z,8.90
2022-11-16T19:01:24.611Z,8.90
2022-11-16T19:03:55.097Z,8.83
2022-11-16T19:06:26.764Z,8.86
2022-11-16T19:08:59.577Z,8.97
2022-11-16T19:11:30.050Z,8.92
2022-11-16T19:14:01.085Z,8.99
2022-11-16T19:16:30.446Z,9.04
2022-11-16T19:19:05.580Z,9.03
2022-11-16T19:21:42.349Z,9.05
2022-11-16T19:24:11.993Z,9.02
2022-11-16T19:26:46.377Z,9.03
2022-11-16T19:31:56.628Z,9.08
2022-11-16T19:34:30.404Z,9.10
2022-11-16T19:37:03.084Z,9.18
2022-11-16T19:39:31.449Z,9.24
2022-11-16T19:42:00.081Z,9.21
2022-11-16T19:44:28.545Z,9.24
2022-11-16T19:46:57.760Z,9.23
2022-11-16T19:49:26.263Z,9.26
2022-11-16T19:51:54.878Z,9.26
2022-11-16T19:54:24.922Z,9.30
2022-11-16T19:56:55.173Z,9.35
2022-11-16T19:59:23.971Z,9.33
2022-11-16T20:01:53.068Z,9.28
2022-11-16T20:04:23.320Z,9.16
2022-11-16T20:06:53.011Z,9.12
2022-11-16T20:09:22.024Z,9.18
2022-11-16T20:11:52.455Z,9.08
2022-11-16T20:14:21.292Z,9.00
2022-11-16T20:16:50.746Z,8.98
2022-11-16T20:19:20.723Z,8.98
2022-11-16T20:21:49.097Z,9.01
2022-11-16T20:24:19.253Z,8.96
2022-11-16T20:26:49.300Z,8.92
2022-11-16T20:29:20.519Z,8.92
2022-11-16T20:31:49.171Z,8.92
2022-11-16T20:34:20.731Z,8.97
2022-11-16T20:36:51.525Z,9.01
2022-11-16T20:39:21.711Z,9.05
2022-11-16T20:41:50.494Z,9.06
2022-11-16T20:44:22.595Z,9.02
2022-11-16T20:46:52.666Z,9.02
2022-11-16T20:49:21.373Z,8.99
2022-11-16T20:51:51.423Z,8.96
2022-11-16T20:54:20.075Z,8.94
2022-11-16T20:56:50.386Z,8.92
2022-11-16T20:59:20.825Z,8.85
2022-11-16T21:01:53.724Z,8.78
2022-11-16T21:04:22.149Z,8.77
2022-11-16T21:06:50.960Z,8.72
2022-11-16T21:09:22.966Z,8.70
2022-11-16T21:12:05.248Z,8.64
2022-11-16T21:14:35.414Z,8.58
2022-11-16T21:17:04.046Z,8.57
2022-11-16T21:19:32.733Z,8.56
2022-11-16T21:22:01.497Z,8.56
2022-11-16T21:24:32.004Z,8.47
2022-11-16T21:27:00.581Z,8.43
2022-11-16T21:29:29.375Z,8.41
2022-11-16T21:31:59.567Z,8.37
2022-11-16T21:34:34.646Z,8.30
2022-11-16T21:37:05.774Z,8.25
2022-11-16T21:39:34.305Z,8.19
2022-11-16T21:42:02.922Z,8.09
2022-11-16T21:44:42.126Z,8.08
2022-11-16T21:47:13.782Z,8.03
2022-11-16T21:50:02.358Z,7.98
2022-11-16T21:52:30.741Z,7.89
2022-11-16T21:55:02.280Z,7.87
2022-11-16T21:57:31.217Z,7.85
2022-11-16T22:00:01.160Z,7.86
2022-11-16T22:02:31.426Z,7.77
2022-11-16T22:05:17.508Z,7.73
2022-11-16T22:07:46.074Z,7.71
2022-11-16T22:10:14.592Z,7.73
2022-11-16T22:12:42.909Z,7.76
2022-11-16T22:15:12.525Z,7.76
2022-11-16T22:17:45.168Z,7.77
2022-11-16T22:20:13.713Z,7.76
2022-11-16T22:22:42.265Z,7.76
2022-11-16T22:25:11.720Z,7.76
2022-11-16T22:28:05.592Z,7.79
2022-11-16T22:30:29.313Z,7.83
2022-11-16T22:32:59.125Z,7.86
2022-11-16T22:35:27.914Z,7.90
2022-11-16T22:37:56.333Z,7.92
2022-11-16T22:40:25.183Z,7.94
2022-11-16T22:42:57.431Z,8.00
2022-11-16T22:45:26.963Z,7.81
2022-11-16T22:47:56.742Z,7.68
2022-11-16T22:50:26.702Z,7.54
2022-11-16T22:52:55.087Z,7.49
2022-11-16T22:55:23.777Z,7.52
2022-11-16T22:57:52.810Z,7.50
2022-11-16T23:00:21.662Z,7.38
2022-11-16T23:02:50.500Z,7.31
2022-11-16T23:05:19.195Z,7.35
2022-11-16T23:07:49.382Z,7.47
2022-11-16T23:10:18.540Z,7.60
2022-11-16T23:13:13.216Z,7.71
2022-11-16T23:15:50.641Z,7.64
2022-11-16T23:18:20.224Z,7.63
2022-11-16T23:21:06.080Z,7.55
2022-11-16T23:23:53.392Z,7.53
2022-11-16T23:26:42.755Z,7.49
2022-11-16T23:29:12.729Z,7.44
2022-11-16T23:31:41.316Z,7.31
2022-11-16T23:34:09.714Z,7.26
2022-11-16T23:36:38.396Z,7.29
2022-11-16T23:39:08.596Z,7.22
2022-11-16T23:41:54.946Z,7.21
2022-11-16T23:44:23.533Z,7.16
2022-11-16T23:46:52.960Z,7.16
2022-11-16T23:49:21.573Z,7.21
2022-11-16T23:51:50.029Z,7.14
2022-11-16T23:54:20.195Z,7.14
2022-11-16T23:56:48.665Z,7.11
2022-11-16T23:59:17.378Z,7.02
